createdAt,value
2019-03-15T00:02:08.611Z,2.00
2019-03-15T00:04:48.690Z,1.13
2019-03-15T00:07:28.769Z,1.90
2019-03-15T00:10:08.737Z,2.87
2019-03-15T00:12:48.915Z,1.63
2019-03-15T00:15:29.472Z,1.57
2019-03-15T00:18:09.449Z,1.93
2019-03-15T00:20:49.810Z,1.70
2019-03-15T00:23:29.889Z,1.50
2019-03-15T00:26:10.682Z,1.70
2019-03-15T00:28:50.326Z,1.57
2019-03-15T00:31:30.758Z,1.70
2019-03-15T00:34:11.288Z,2.67
2019-03-15T00:36:51.188Z,2.63
2019-03-15T00:39:31.437Z,1.80
2019-03-15T00:42:11.457Z,2.40
2019-03-15T00:44:51.685Z,1.70
2019-03-15T00:47:32.130Z,1.10
2019-03-15T00:50:12.821Z,1.67
2019-03-15T00:52:52.462Z,1.10
2019-03-15T00:55:32.758Z,1.20
2019-03-15T00:58:13.201Z,0.83
2019-03-15T01:00:53.465Z,1.10
2019-03-15T01:03:33.313Z,1.93
2019-03-15T01:06:00.979Z,1.30
2019-03-15T01:08:28.620Z,1.13
2019-03-15T01:10:56.217Z,1.10
2019-03-15T01:13:23.809Z,1.20
2019-03-15T01:15:51.440Z,0.90
2019-03-15T01:18:38.449Z,0.83
2019-03-15T01:21:18.490Z,0.90
2019-03-15T01:23:58.731Z,1.17
2019-03-15T01:26:38.733Z,1.10
2019-03-15T01:29:19.173Z,1.50
2019-03-15T01:31:59.141Z,1.10
2019-03-15T01:34:39.393Z,1.27
2019-03-15T01:37:19.280Z,1.37
2019-03-15T01:40:00.774Z,1.40
2019-03-15T01:42:40.870Z,1.23
2019-03-15T01:45:20.913Z,1.83
2019-03-15T01:48:00.898Z,1.30
2019-03-15T01:50:41.178Z,1.30
2019-03-15T01:53:20.858Z,1.27
2019-03-15T01:56:01.110Z,1.30
2019-03-15T01:58:41.456Z,2.23
2019-03-15T02:01:21.534Z,1.40
2019-03-15T02:04:01.823Z,1.57
2019-03-15T02:06:41.780Z,1.50
2019-03-15T02:09:21.702Z,2.73
2019-03-15T02:12:01.854Z,3.23
2019-03-15T02:14:42.058Z,5.40
2019-03-15T02:17:22.285Z,1.70
2019-03-15T02:20:02.429Z,2.53
2019-03-15T02:22:42.603Z,2.23
2019-03-15T02:25:22.790Z,2.40
2019-03-15T02:28:02.789Z,3.00
2019-03-15T02:30:43.087Z,2.47
2019-03-15T02:33:23.209Z,5.57
2019-03-15T02:36:03.573Z,2.20
2019-03-15T02:38:43.681Z,7.40
2019-03-15T02:41:23.948Z,3.77
2019-03-15T02:44:04.040Z,4.20
2019-03-15T02:46:44.266Z,6.63
2019-03-15T02:49:24.499Z,2.97
2019-03-15T02:52:04.913Z,6.80
2019-03-15T02:54:44.665Z,4.37
2019-03-15T02:57:25.131Z,5.27
2019-03-15T03:00:05.146Z,4.93
2019-03-15T03:02:45.274Z,6.17
2019-03-15T03:05:25.181Z,7.23
2019-03-15T03:08:05.389Z,8.80
2019-03-15T03:10:45.299Z,6.20
2019-03-15T03:13:25.461Z,5.63
2019-03-15T03:16:05.393Z,9.37
2019-03-15T03:18:45.755Z,7.47
2019-03-15T03:21:25.524Z,8.43
2019-03-15T03:24:05.649Z,8.27
2019-03-15T03:26:45.733Z,4.43
2019-03-15T03:29:25.806Z,5.57
2019-03-15T03:32:05.956Z,8.87
2019-03-15T03:34:46.219Z,5.57
2019-03-15T03:37:26.318Z,9.67
2019-03-15T03:40:06.581Z,6.80
2019-03-15T03:42:46.739Z,8.77
2019-03-15T03:45:27.139Z,6.00
2019-03-15T03:48:07.059Z,8.87
2019-03-15T03:50:47.428Z,10.90
2019-03-15T03:53:27.350Z,7.30
2019-03-15T03:56:07.508Z,7.27
2019-03-15T03:58:47.601Z,9.63
2019-03-15T04:01:27.837Z,7.20
2019-03-15T04:04:08.114Z,6.37
2019-03-15T04:06:48.203Z,8.47
2019-03-15T04:09:28.294Z,7.23
2019-03-15T04:12:08.114Z,9.30
2019-03-15T04:14:49.579Z,8.57
2019-03-15T04:17:29.645Z,5.60
2019-03-15T04:20:09.842Z,6.90
2019-03-15T04:22:50.183Z,6.20
2019-03-15T04:25:30.537Z,7.87
2019-03-15T04:28:10.381Z,6.57
2019-03-15T04:30:50.634Z,4.60
2019-03-15T04:33:30.597Z,4.57
2019-03-15T04:36:10.917Z,3.07
2019-03-15T04:38:50.898Z,4.17
2019-03-15T04:41:31.041Z,5.97
2019-03-15T04:44:11.069Z,5.13
2019-03-15T04:46:51.553Z,4.10
2019-03-15T04:49:31.621Z,2.17
2019-03-15T04:52:11.763Z,3.27
2019-03-15T04:54:52.125Z,3.03
2019-03-15T04:57:32.191Z,3.30
2019-03-15T05:00:12.065Z,2.60
2019-03-15T05:02:51.998Z,2.17
2019-03-15T05:05:31.972Z,4.67
2019-03-15T05:08:11.849Z,2.23
2019-03-15T05:10:52.130Z,3.00
2019-03-15T05:13:32.204Z,2.13
2019-03-15T05:16:12.410Z,3.20
2019-03-15T05:18:52.564Z,3.00
2019-03-15T05:21:20.304Z,3.40
2019-03-15T05:24:26.737Z,3.00
2019-03-15T05:27:13.757Z,2.17
2019-03-15T05:29:54.175Z,1.93
2019-03-15T05:32:34.102Z,2.57
2019-03-15T05:35:14.191Z,2.33
2019-03-15T05:37:54.662Z,3.53
2019-03-15T05:40:22.262Z,2.90
2019-03-15T05:43:01.957Z,2.80
2019-03-15T05:45:41.838Z,4.13
2019-03-15T05:48:22.062Z,3.67
2019-03-15T05:50:49.769Z,3.67
2019-03-15T05:53:37.040Z,3.80
2019-03-15T05:56:24.054Z,2.67
2019-03-15T05:58:51.741Z,2.90
2019-03-15T06:01:38.769Z,3.57
2019-03-15T06:04:25.822Z,2.33
2019-03-15T06:07:05.802Z,1.83
2019-03-15T06:09:45.925Z,3.10
2019-03-15T06:12:26.109Z,2.47
2019-03-15T06:15:05.957Z,2.57
2019-03-15T06:17:46.058Z,1.70
2019-03-15T06:20:26.361Z,2.33
2019-03-15T06:23:06.450Z,3.57
2019-03-15T06:25:50.383Z,5.60
2019-03-15T06:28:30.777Z,3.33
2019-03-15T06:31:10.765Z,4.37
2019-03-15T06:33:50.831Z,4.00
2019-03-15T06:36:31.358Z,3.83
2019-03-15T06:39:09.622Z,4.80
2019-03-15T06:41:56.686Z,3.33
2019-03-15T06:44:39.437Z,3.73
2019-03-15T06:47:19.340Z,2.80
2019-03-15T06:50:00.324Z,3.53
2019-03-15T06:52:40.589Z,4.00
2019-03-15T06:55:20.606Z,4.33
2019-03-15T06:58:01.009Z,8.97
2019-03-15T07:00:41.001Z,6.37
2019-03-15T07:03:20.977Z,3.97
2019-03-15T07:06:01.232Z,2.13
2019-03-15T07:08:41.267Z,6.30
2019-03-15T07:11:21.405Z,4.33
2019-03-15T07:14:01.365Z,9.60
2019-03-15T07:16:41.493Z,2.87
2019-03-15T07:19:28.904Z,4.87
2019-03-15T07:22:03.801Z,4.70
2019-03-15T07:24:44.082Z,7.77
2019-03-15T07:30:23.418Z,4.97
2019-03-15T07:39:17.437Z,2.43
2019-03-15T07:41:57.399Z,1.60
2019-03-15T07:44:37.717Z,2.30
2019-03-15T07:47:17.598Z,6.23
2019-03-15T07:49:57.705Z,3.47
2019-03-15T07:52:37.590Z,3.17
2019-03-15T07:55:17.908Z,2.73
2019-03-15T07:57:58.095Z,1.80
2019-03-15T08:00:38.092Z,4.03
2019-03-15T08:03:18.117Z,2.00
2019-03-15T08:05:58.385Z,3.40
2019-03-15T08:08:38.920Z,4.77
2019-03-15T08:11:19.834Z,2.87
2019-03-15T08:13:59.738Z,4.07
2019-03-15T08:16:40.155Z,5.03
2019-03-15T08:19:20.591Z,5.10
2019-03-15T08:21:48.208Z,3.67
2019-03-15T08:24:36.640Z,4.53
2019-03-15T08:27:24.217Z,6.27
2019-03-15T08:30:03.830Z,3.43
2019-03-15T08:32:44.343Z,3.80
2019-03-15T08:35:24.609Z,5.20
2019-03-15T08:38:05.526Z,2.13
2019-03-15T08:40:46.322Z,2.50
2019-03-15T08:43:26.222Z,3.33
2019-03-15T08:46:06.826Z,2.73
2019-03-15T08:48:46.591Z,2.83
2019-03-15T08:51:26.702Z,2.40
2019-03-15T08:54:06.784Z,2.10
2019-03-15T08:56:34.552Z,2.03
2019-03-15T08:59:02.222Z,1.83
2019-03-15T09:01:29.911Z,2.30
2019-03-15T09:03:57.629Z,1.63
2019-03-15T09:06:25.288Z,3.77
2019-03-15T09:08:53.041Z,2.30
2019-03-15T09:11:20.763Z,2.10
2019-03-15T09:13:49.366Z,2.30
2019-03-15T09:16:36.525Z,2.90
2019-03-15T09:19:17.035Z,3.77
2019-03-15T09:22:00.344Z,2.80
2019-03-15T09:27:37.726Z,4.13
2019-03-15T09:30:23.633Z,3.53
2019-03-15T09:33:01.852Z,2.47
2019-03-15T09:35:41.584Z,3.23
2019-03-15T09:38:22.191Z,1.93
2019-03-15T09:41:02.686Z,2.33
2019-03-15T09:43:45.385Z,1.97
2019-03-15T09:46:25.046Z,2.37
2019-03-15T09:49:05.152Z,2.27
2019-03-15T09:51:45.201Z,1.93
2019-03-15T09:54:26.310Z,2.47
2019-03-15T09:57:06.444Z,1.50
2019-03-15T09:59:46.486Z,4.57
2019-03-15T10:02:30.747Z,2.13
2019-03-15T10:05:11.525Z,1.50
2019-03-15T10:07:52.186Z,2.90
2019-03-15T10:10:32.317Z,2.60
2019-03-15T10:13:13.260Z,3.57
2019-03-15T10:15:55.688Z,3.07
2019-03-15T10:18:36.237Z,3.57
2019-03-15T10:21:15.937Z,4.17
2019-03-15T10:23:55.743Z,4.00
2019-03-15T10:26:23.468Z,1.70
2019-03-15T10:29:15.730Z,2.20
2019-03-15T10:31:52.121Z,2.10
2019-03-15T10:34:32.153Z,2.60
2019-03-15T10:37:12.185Z,2.40
2019-03-15T10:39:52.349Z,2.10
2019-03-15T10:42:32.546Z,1.63
2019-03-15T10:45:12.793Z,2.70
2019-03-15T10:47:53.038Z,2.20
2019-03-15T10:50:33.140Z,2.83
2019-03-15T10:53:13.346Z,1.70
2019-03-15T10:56:00.074Z,2.60
2019-03-15T10:58:35.442Z,2.67
2019-03-15T11:01:15.542Z,2.23
2019-03-15T11:03:55.809Z,1.80
2019-03-15T11:06:35.774Z,1.80
2019-03-15T11:09:15.835Z,3.13
2019-03-15T11:11:56.432Z,2.43
2019-03-15T11:17:35.578Z,2.13
2019-03-15T11:20:15.716Z,3.73
2019-03-15T11:22:56.042Z,3.77
2019-03-15T11:25:36.886Z,3.50
2019-03-15T11:28:17.248Z,3.60
2019-03-15T11:31:00.528Z,2.53
2019-03-15T11:33:39.623Z,2.37
2019-03-15T11:36:21.215Z,2.30
2019-03-15T11:39:01.986Z,2.03
2019-03-15T11:41:43.168Z,3.17
2019-03-15T11:44:23.220Z,1.60
2019-03-15T11:47:03.264Z,2.27
2019-03-15T11:49:43.447Z,3.60
2019-03-15T11:52:23.602Z,5.57
2019-03-15T11:55:03.744Z,7.20
2019-03-15T11:57:43.990Z,6.27
2019-03-15T12:00:24.145Z,5.20
2019-03-15T12:03:04.001Z,2.67
2019-03-15T12:05:44.062Z,3.07
2019-03-15T12:08:24.361Z,2.30
2019-03-15T12:11:04.531Z,2.97
2019-03-15T12:13:44.654Z,6.60
2019-03-15T12:16:24.729Z,5.77
2019-03-15T12:19:04.693Z,3.80
2019-03-15T12:21:44.945Z,2.60
2019-03-15T12:24:24.970Z,1.60
2019-03-15T12:27:05.386Z,1.70
2019-03-15T12:29:45.820Z,1.70
2019-03-15T12:32:25.815Z,4.80
2019-03-15T12:35:05.930Z,5.00
2019-03-15T12:37:46.106Z,2.50
2019-03-15T12:40:26.278Z,3.63
2019-03-15T12:42:54.126Z,2.10
2019-03-15T12:45:34.433Z,3.27
2019-03-15T12:48:14.759Z,4.00
2019-03-15T12:50:55.027Z,3.70
2019-03-15T12:53:34.965Z,5.90
2019-03-15T12:56:16.545Z,4.50
2019-03-15T12:58:57.014Z,5.67
2019-03-15T13:01:24.774Z,4.87
2019-03-15T13:07:05.151Z,3.77
2019-03-15T13:09:52.529Z,3.73
2019-03-15T13:12:20.417Z,4.20
2019-03-15T13:15:08.782Z,4.57
2019-03-15T13:17:48.755Z,4.00
2019-03-15T13:20:29.483Z,6.00
2019-03-15T13:23:10.160Z,4.47
2019-03-15T13:25:50.465Z,4.33
2019-03-15T13:28:30.611Z,4.30
2019-03-15T13:31:10.690Z,5.30
2019-03-15T13:33:51.019Z,4.93
2019-03-15T13:36:31.030Z,2.93
2019-03-15T13:39:10.953Z,2.53
2019-03-15T13:41:38.892Z,5.50
2019-03-15T13:44:27.257Z,2.00
2019-03-15T13:47:07.555Z,1.90
2019-03-15T13:49:49.226Z,2.43
2019-03-15T13:52:29.376Z,2.00
2019-03-15T13:55:09.937Z,1.63
2019-03-15T13:57:41.786Z,2.43
2019-03-15T14:00:28.885Z,3.90
2019-03-15T14:03:09.153Z,2.27
2019-03-15T14:05:49.223Z,4.53
2019-03-15T14:08:31.786Z,2.57
2019-03-15T14:11:12.180Z,2.00
2019-03-15T14:13:52.403Z,2.07
2019-03-15T14:16:32.351Z,4.10
2019-03-15T14:19:12.759Z,4.80
2019-03-15T14:21:52.698Z,2.30
2019-03-15T14:24:25.049Z,2.20
2019-03-15T14:27:12.142Z,2.93
2019-03-15T14:29:59.198Z,4.23
2019-03-15T14:32:41.869Z,3.63
2019-03-15T14:35:21.824Z,3.67
2019-03-15T14:38:02.046Z,4.57
2019-03-15T14:40:42.654Z,3.13
2019-03-15T14:43:22.650Z,4.00
2019-03-15T14:46:02.854Z,3.53
2019-03-15T14:48:43.111Z,2.87
2019-03-15T14:51:23.558Z,1.70
2019-03-15T14:54:03.450Z,2.10
2019-03-15T14:56:43.686Z,2.70
2019-03-15T14:59:23.952Z,2.00
2019-03-15T15:02:04.089Z,1.30
2019-03-15T15:04:44.322Z,1.87
2019-03-15T15:07:24.409Z,3.53
2019-03-15T15:13:03.657Z,1.33
2019-03-15T15:15:43.765Z,1.30
2019-03-15T15:18:23.990Z,1.30
2019-03-15T15:21:03.948Z,1.27
2019-03-15T15:23:44.210Z,0.97
2019-03-15T15:26:24.369Z,1.27
2019-03-15T15:29:04.217Z,1.70
2019-03-15T15:31:44.671Z,1.53
2019-03-15T15:34:24.889Z,1.07
2019-03-15T15:37:04.921Z,1.20
2019-03-15T15:39:44.894Z,1.23
2019-03-15T15:42:25.121Z,2.33
2019-03-15T15:45:05.102Z,2.67
2019-03-15T15:47:45.153Z,2.23
2019-03-15T15:50:25.209Z,2.73
2019-03-15T15:53:05.390Z,2.17
2019-03-15T15:55:45.773Z,1.77
2019-03-15T15:58:25.923Z,2.20
2019-03-15T16:01:05.903Z,3.40
2019-03-15T16:03:46.257Z,4.30
2019-03-15T16:06:26.195Z,4.33
2019-03-15T16:09:06.356Z,1.83
2019-03-15T16:11:46.552Z,1.40
2019-03-15T16:14:26.663Z,1.23
2019-03-15T16:17:06.729Z,2.90
2019-03-15T16:19:46.801Z,5.20
2019-03-15T16:22:27.262Z,2.60
2019-03-15T16:25:07.157Z,1.23
2019-03-15T16:31:00.476Z,1.60
2019-03-15T16:33:28.895Z,1.40
2019-03-15T16:35:56.958Z,3.00
2019-03-15T16:38:44.157Z,1.13
2019-03-15T16:41:24.645Z,1.37
2019-03-15T16:44:04.669Z,1.60
2019-03-15T16:46:45.134Z,1.40
2019-03-15T16:49:25.139Z,1.47
2019-03-15T16:55:04.380Z,1.80
2019-03-15T16:57:44.467Z,1.30
2019-03-15T17:00:24.458Z,2.83
2019-03-15T17:03:04.623Z,1.63
2019-03-15T17:05:44.610Z,2.33
2019-03-15T17:08:25.033Z,1.67
2019-03-15T17:11:05.090Z,1.50
2019-03-15T17:13:44.933Z,2.63
2019-03-15T17:16:25.004Z,2.27
2019-03-15T17:19:05.183Z,1.63
2019-03-15T17:21:45.136Z,1.90
2019-03-15T17:24:25.349Z,1.50
2019-03-15T17:27:05.328Z,1.60
2019-03-15T17:29:45.576Z,1.30
2019-03-15T17:32:25.955Z,1.83
2019-03-15T17:35:06.129Z,1.50
2019-03-15T17:37:46.256Z,3.27
2019-03-15T17:40:26.455Z,3.07
2019-03-15T17:43:06.599Z,2.33
2019-03-15T17:45:46.833Z,3.20
2019-03-15T17:48:26.880Z,2.83
2019-03-15T17:51:09.142Z,1.60
2019-03-15T17:53:51.693Z,1.40
2019-03-15T17:56:31.733Z,3.90
2019-03-15T17:59:12.959Z,4.27
2019-03-15T18:01:52.998Z,2.03
2019-03-15T18:04:33.097Z,2.47
2019-03-15T18:07:13.407Z,1.83
2019-03-15T18:12:55.045Z,1.60
2019-03-15T18:15:35.210Z,1.60
2019-03-15T18:18:15.349Z,1.50
2019-03-15T18:20:55.863Z,1.63
2019-03-15T18:23:35.694Z,1.00
2019-03-15T18:26:15.842Z,1.30
2019-03-15T18:28:56.114Z,1.30
2019-03-15T18:31:36.132Z,3.87
2019-03-15T18:34:16.153Z,1.77
2019-03-15T18:36:56.443Z,1.20
2019-03-15T18:39:36.936Z,1.10
2019-03-15T18:42:15.301Z,1.93
2019-03-15T18:45:02.440Z,1.33
2019-03-15T18:47:43.108Z,1.17
2019-03-15T18:50:23.148Z,1.20
2019-03-15T18:53:03.473Z,0.70
2019-03-15T18:55:43.665Z,1.20
2019-03-15T18:58:23.753Z,0.97
2019-03-15T19:01:03.563Z,0.83
2019-03-15T19:03:44.259Z,1.30
2019-03-15T19:06:22.515Z,1.13
2019-03-15T19:09:03.737Z,1.20
2019-03-15T19:11:44.058Z,1.27
2019-03-15T19:14:24.572Z,1.00
2019-03-15T19:17:04.294Z,0.93
2019-03-15T19:19:44.349Z,2.47
2019-03-15T19:22:26.548Z,2.13
2019-03-15T19:25:06.920Z,0.93
2019-03-15T19:27:47.009Z,0.90
2019-03-15T19:30:26.760Z,0.70
2019-03-15T19:33:06.701Z,0.70
2019-03-15T19:35:46.512Z,0.87
2019-03-15T19:38:26.848Z,0.90
2019-03-15T19:46:51.548Z,1.30
2019-03-15T19:49:31.693Z,1.07
2019-03-15T19:52:11.819Z,0.70
2019-03-15T19:55:00.585Z,0.67
2019-03-15T19:57:33.905Z,1.53
2019-03-15T20:00:14.369Z,0.77
2019-03-15T20:02:43.201Z,0.90
2019-03-15T20:05:30.436Z,1.37
2019-03-15T20:08:10.784Z,0.83
2019-03-15T20:10:51.076Z,0.70
2019-03-15T20:13:30.871Z,1.07
2019-03-15T20:16:10.845Z,1.80
2019-03-15T20:18:50.979Z,0.80
2019-03-15T20:24:30.578Z,0.93
2019-03-15T20:27:10.798Z,0.80
2019-03-15T20:32:49.867Z,0.90
2019-03-15T20:35:30.042Z,0.70
2019-03-15T20:38:10.433Z,1.57
2019-03-15T20:40:50.711Z,0.97
2019-03-15T20:43:31.141Z,1.10
2019-03-15T20:46:11.444Z,1.43
2019-03-15T20:48:51.914Z,1.47
2019-03-15T20:51:32.154Z,0.80
2019-03-15T20:54:12.134Z,1.30
2019-03-15T20:56:52.476Z,2.00
2019-03-15T20:59:32.426Z,1.90
2019-03-15T21:02:13.019Z,1.53
2019-03-15T21:04:52.779Z,1.50
2019-03-15T21:07:33.072Z,2.13
2019-03-15T21:10:13.151Z,2.43
2019-03-15T21:12:53.545Z,1.30
2019-03-15T21:15:33.827Z,1.57
2019-03-15T21:18:14.105Z,1.60
2019-03-15T21:20:54.306Z,1.93
2019-03-15T21:23:34.745Z,1.60
2019-03-15T21:26:14.489Z,1.10
2019-03-15T21:28:54.588Z,1.10
2019-03-15T21:31:34.638Z,1.10
2019-03-15T21:34:15.175Z,1.40
2019-03-15T21:36:55.315Z,1.20
2019-03-15T21:39:35.576Z,1.17
2019-03-15T21:42:15.916Z,1.20
2019-03-15T21:44:56.377Z,1.20
2019-03-15T21:47:35.999Z,1.40
2019-03-15T21:50:16.191Z,1.60
2019-03-15T21:52:56.407Z,1.60
2019-03-15T21:55:38.660Z,1.60
2019-03-15T21:58:07.057Z,1.20
2019-03-15T22:01:02.182Z,1.30
2019-03-15T22:03:42.990Z,1.90
2019-03-15T22:06:23.357Z,1.30
2019-03-15T22:09:03.886Z,1.17
2019-03-15T22:11:43.966Z,1.17
2019-03-15T22:14:24.143Z,1.60
2019-03-15T22:17:04.142Z,1.10
2019-03-15T22:19:44.231Z,1.30
2019-03-15T22:22:26.532Z,2.40
2019-03-15T22:25:06.598Z,1.60
2019-03-15T22:27:50.001Z,1.00
2019-03-15T22:30:29.009Z,1.83
2019-03-15T22:33:09.301Z,1.40
2019-03-15T22:35:49.367Z,1.00
2019-03-15T22:38:29.514Z,1.07
2019-03-15T22:41:09.687Z,0.93
2019-03-15T22:43:49.837Z,1.40
2019-03-15T22:46:29.873Z,1.37
2019-03-15T22:49:10.238Z,1.53
2019-03-15T22:51:50.246Z,1.30
2019-03-15T22:54:30.716Z,1.20
2019-03-15T22:57:10.692Z,1.00
2019-03-15T22:59:50.915Z,0.80
2019-03-15T23:02:31.324Z,1.03
2019-03-15T23:04:59.446Z,2.50
2019-03-15T23:07:46.582Z,1.73
2019-03-15T23:10:33.790Z,1.23
2019-03-15T23:13:20.984Z,1.10
2019-03-15T23:16:00.564Z,1.20
2019-03-15T23:18:40.951Z,1.17
2019-03-15T23:21:20.655Z,1.10
2019-03-15T23:24:00.982Z,1.33
2019-03-15T23:26:40.918Z,0.90
2019-03-15T23:29:20.886Z,1.20
2019-03-15T23:32:01.108Z,1.10
2019-03-15T23:34:41.239Z,0.97
2019-03-15T23:37:21.342Z,1.23
2019-03-15T23:40:01.679Z,0.87
2019-03-15T23:42:42.066Z,0.90
2019-03-15T23:45:22.320Z,0.93
2019-03-15T23:48:03.922Z,1.00
2019-03-15T23:50:44.511Z,0.87
2019-03-15T23:53:24.656Z,1.10
2019-03-15T23:56:04.882Z,1.07
2019-03-15T23:58:45.151Z,0.80
